Time;durP1;ratioP1;P1;durP2;ratioP2;P2;SDS_P1;SDS_P2;PMS_P1;PMS_P2;Temp;Humidity;BMP_temperature;BMP_pressure;BME280_temperature;BME280_humidity;BME280_pressure;Samples;Min_cycle;Max_cycle;Signal;HPM_P1;HPM_P2
2022/10/28 00:01:18;;;;;;;11.30;6.93;;;16.10;99.90;;;;;;5060975;28;20170;-78
2022/10/28 00:03:48;;;;;;;18.73;7.47;;;16.10;99.90;;;;;;5077086;28;20583;-78
2022/10/28 00:06:21;;;;;;;14.57;6.73;;;16.00;99.90;;;;;;5032904;28;20191;-78
2022/10/28 00:08:48;;;;;;;20.03;7.53;;;15.90;99.90;;;;;;5069410;28;20191;-78
2022/10/28 00:11:20;;;;;;;16.17;7.20;;;16.00;99.90;;;;;;5049747;28;20240;-79
2022/10/28 00:13:48;;;;;;;14.73;7.70;;;16.00;99.90;;;;;;5072273;28;20186;-78
2022/10/28 00:16:19;;;;;;;13.63;7.27;;;16.00;99.90;;;;;;5034008;28;20183;-78
2022/10/28 00:18:46;;;;;;;17.53;7.43;;;16.00;99.90;;;;;;5036064;28;20209;-79
2022/10/28 00:21:18;;;;;;;12.57;7.50;;;16.00;99.90;;;;;;5048351;28;20191;-79
2022/10/28 00:23:46;;;;;;;16.30;7.43;;;16.00;99.90;;;;;;5058586;28;20186;-79
2022/10/28 00:26:19;;;;;;;19.60;7.57;;;16.00;99.90;;;;;;5053297;28;20581;-79
2022/10/28 00:28:52;;;;;;;17.37;7.70;;;15.90;99.90;;;;;;5038441;28;20203;-78
2022/10/28 00:31:21;;;;;;;16.93;6.70;;;15.90;99.90;;;;;;5064290;28;20592;-79
2022/10/28 00:33:49;;;;;;;15.27;6.90;;;15.80;99.90;;;;;;5043857;28;20192;-79
2022/10/28 00:36:25;;;;;;;14.47;7.40;;;15.80;99.90;;;;;;5039425;28;20632;-78
2022/10/28 00:38:54;;;;;;;13.67;7.07;;;15.80;99.90;;;;;;5050655;28;20291;-78
2022/10/28 00:41:32;;;;;;;21.07;7.43;;;15.80;99.90;;;;;;5066786;28;20674;-78
2022/10/28 00:44:20;;;;;;;19.63;7.57;;;15.90;99.90;;;;;;5050374;28;20285;-78
2022/10/28 00:46:52;;;;;;;11.37;6.63;;;15.80;99.90;;;;;;5060239;28;20197;-79
2022/10/28 00:49:31;;;;;;;17.67;7.30;;;15.80;99.90;;;;;;5033453;28;20191;-78
2022/10/28 00:52:09;;;;;;;14.30;6.53;;;15.80;99.90;;;;;;5071786;28;20205;-77
2022/10/28 00:54:38;;;;;;;17.53;6.93;;;15.80;99.90;;;;;;5050790;28;20182;-78
2022/10/28 00:57:12;;;;;;;15.27;7.47;;;15.80;99.90;;;;;;5035715;28;20223;-78
2022/10/28 00:59:45;;;;;;;13.63;7.43;;;15.80;99.90;;;;;;5031641;28;20194;-78
2022/10/28 01:02:13;;;;;;;11.43;7.13;;;15.90;99.90;;;;;;5075370;28;20660;-78
2022/10/28 01:04:43;;;;;;;15.97;7.70;;;15.80;99.90;;;;;;5020787;28;20249;-78
2022/10/28 01:07:10;;;;;;;19.03;7.43;;;15.80;99.90;;;;;;5049062;28;20187;-79
2022/10/28 01:09:39;;;;;;;13.97;6.07;;;15.80;99.90;;;;;;5035170;28;20236;-78
2022/10/28 01:12:38;;;;;;;18.83;6.77;;;15.80;99.90;;;;;;5020277;28;20282;-78
2022/10/28 01:15:58;;;;;;;15.20;7.10;;;15.80;99.90;;;;;;5034151;28;20186;-78
2022/10/28 01:18:49;;;;;;;12.70;6.60;;;15.70;99.90;;;;;;5069374;28;20214;-78
2022/10/28 01:22:10;;;;;;;14.43;7.37;;;15.70;99.90;;;;;;5054730;28;20253;-79
2022/10/28 01:24:55;;;;;;;19.63;7.67;;;15.70;99.90;;;;;;5034668;28;20198;-78
2022/10/28 01:28:08;;;;;;;11.40;7.07;;;15.80;99.90;;;;;;5064863;28;20257;-79
2022/10/28 01:31:12;;;;;;;14.33;7.30;;;15.80;99.90;;;;;;5054357;28;20191;-78
2022/10/28 01:34:04;;;;;;;16.07;7.23;;;15.80;99.90;;;;;;5045015;28;20187;-78
2022/10/28 01:37:08;;;;;;;13.67;6.80;;;15.80;99.90;;;;;;5067602;28;20275;-78
2022/10/28 01:40:12;;;;;;;17.70;6.80;;;15.80;99.90;;;;;;5047512;28;20190;-78
2022/10/28 01:43:19;;;;;;;14.57;7.60;;;15.70;99.90;;;;;;5070466;28;20190;-78
2022/10/28 01:46:00;;;;;;;15.97;7.60;;;15.70;99.90;;;;;;5083440;28;20999;-78
2022/10/28 01:48:50;;;;;;;17.77;7.03;;;15.80;99.90;;;;;;5052394;28;20349;-78
2022/10/28 01:51:28;;;;;;;21.97;7.20;;;15.70;99.90;;;;;;5048941;28;20195;-78
2022/10/28 01:54:00;;;;;;;15.97;7.60;;;15.70;99.90;;;;;;5073237;28;20201;-78
2022/10/28 01:56:34;;;;;;;13.67;7.60;;;15.70;99.90;;;;;;5078128;28;20246;-77
2022/10/28 01:59:03;;;;;;;12.60;7.10;;;15.70;99.90;;;;;;5036758;28;20213;-78
2022/10/28 02:01:31;;;;;;;18.03;7.53;;;15.70;99.90;;;;;;5071749;28;20203;-78
2022/10/28 02:03:58;;;;;;;11.90;7.37;;;15.70;99.90;;;;;;5042913;28;20175;-78
2022/10/28 02:06:30;;;;;;;20.40;7.87;;;15.70;99.90;;;;;;5067730;28;20277;-78
2022/10/28 02:09:34;;;;;;;15.17;7.37;;;15.60;99.90;;;;;;5050653;28;20667;-78
2022/10/28 02:12:25;;;;;;;15.67;7.40;;;15.60;99.90;;;;;;5045015;28;20186;-78
2022/10/28 02:15:20;;;;;;;11.40;7.33;;;15.50;99.90;;;;;;5068351;28;20205;-78
2022/10/28 02:17:58;;;;;;;12.00;7.37;;;15.60;99.90;;;;;;5029372;28;20248;-78
2022/10/28 02:20:43;;;;;;;15.63;7.90;;;15.60;99.90;;;;;;5075607;28;20190;-78
2022/10/28 02:23:35;;;;;;;17.27;8.10;;;15.60;99.90;;;;;;5047166;28;20248;-78
2022/10/28 02:26:16;;;;;;;15.67;7.27;;;15.60;99.90;;;;;;5070342;28;20205;-78
2022/10/28 02:29:16;;;;;;;14.37;7.23;;;15.60;99.90;;;;;;5045077;28;20190;-78
2022/10/28 02:31:56;;;;;;;19.27;8.07;;;15.50;99.90;;;;;;5011754;28;20281;-78
2022/10/28 02:34:42;;;;;;;18.37;7.30;;;15.50;99.90;;;;;;5051162;28;20234;-78
2022/10/28 02:37:18;;;;;;;17.67;7.83;;;15.50;99.90;;;;;;5054822;28;20210;-78
2022/10/28 02:39:54;;;;;;;17.57;7.57;;;15.50;99.90;;;;;;5060391;28;20189;-78
2022/10/28 02:42:51;;;;;;;15.50;7.60;;;15.50;99.90;;;;;;5061724;28;20187;-78
2022/10/28 02:45:42;;;;;;;14.73;7.00;;;15.50;99.90;;;;;;5067531;28;20668;-78
2022/10/28 02:48:17;;;;;;;26.70;9.00;;;15.50;99.90;;;;;;5043304;28;20187;-77
2022/10/28 02:50:53;;;;;;;14.73;7.50;;;15.50;99.90;;;;;;5051205;28;20292;-78
2022/10/28 02:53:32;;;;;;;18.00;7.60;;;15.50;99.90;;;;;;5046817;28;20600;-78
2022/10/28 02:56:03;;;;;;;14.93;7.50;;;15.50;99.90;;;;;;5041466;28;20233;-78
2022/10/28 02:58:39;;;;;;;17.00;8.03;;;15.50;99.90;;;;;;5065911;28;20202;-78
2022/10/28 03:01:06;;;;;;;19.97;7.93;;;15.50;99.90;;;;;;5037466;28;20209;-78
2022/10/28 03:03:32;;;;;;;16.43;8.43;;;15.50;99.90;;;;;;5057219;28;20278;-78
2022/10/28 03:05:59;;;;;;;15.30;7.20;;;15.50;99.90;;;;;;5052544;28;20241;-78
2022/10/28 03:08:25;;;;;;;16.33;7.40;;;15.50;99.90;;;;;;5050728;28;20192;-78
2022/10/28 03:10:51;;;;;;;15.97;6.90;;;15.50;99.90;;;;;;5031833;28;20193;-78
2022/10/28 03:13:17;;;;;;;15.67;7.60;;;15.50;99.90;;;;;;5068930;28;20218;-78
2022/10/28 03:15:44;;;;;;;14.67;7.57;;;15.50;99.90;;;;;;5052377;28;20303;-77
2022/10/28 03:18:10;;;;;;;17.73;7.47;;;15.50;99.90;;;;;;5067558;28;20222;-78
2022/10/28 03:20:36;;;;;;;14.83;7.40;;;15.50;99.90;;;;;;5055666;28;20249;-78
2022/10/28 03:23:02;;;;;;;15.10;7.97;;;15.40;99.90;;;;;;5067486;28;20195;-78
2022/10/28 03:25:28;;;;;;;14.70;7.30;;;15.40;99.90;;;;;;5049505;28;22311;-78
2022/10/28 03:27:55;;;;;;;13.83;7.23;;;15.40;99.90;;;;;;5031739;28;20290;-78
2022/10/28 03:30:21;;;;;;;16.63;7.43;;;15.30;99.90;;;;;;5056141;28;20214;-79
2022/10/28 03:32:48;;;;;;;17.30;7.50;;;15.30;99.90;;;;;;5049229;28;20290;-78
2022/10/28 03:35:15;;;;;;;16.70;7.70;;;15.30;99.90;;;;;;5033245;28;20197;-78
2022/10/28 03:37:44;;;;;;;11.97;7.13;;;15.30;99.90;;;;;;5054290;28;20222;-78
2022/10/28 03:40:12;;;;;;;17.33;7.43;;;15.30;99.90;;;;;;5033688;28;20496;-78
2022/10/28 03:42:41;;;;;;;13.50;7.00;;;15.30;99.90;;;;;;5031710;28;20264;-78
2022/10/28 03:45:09;;;;;;;17.97;7.47;;;15.30;99.90;;;;;;5038315;28;20282;-78
2022/10/28 03:47:35;;;;;;;19.53;7.60;;;15.30;99.90;;;;;;5064491;28;20286;-77
2022/10/28 03:50:02;;;;;;;13.80;7.30;;;15.30;99.90;;;;;;5034890;28;20195;-77
2022/10/28 03:52:29;;;;;;;17.80;6.93;;;15.30;99.90;;;;;;5058986;28;20640;-77
2022/10/28 03:54:55;;;;;;;13.40;7.60;;;15.30;99.90;;;;;;5050385;28;20195;-77
2022/10/28 03:57:21;;;;;;;16.07;7.33;;;15.40;99.90;;;;;;5067643;28;20718;-77
2022/10/28 03:59:47;;;;;;;20.80;7.27;;;15.30;99.90;;;;;;5073828;28;20273;-77
2022/10/28 04:02:14;;;;;;;16.47;6.60;;;15.40;99.90;;;;;;5060161;28;20191;-78
2022/10/28 04:04:40;;;;;;;17.00;7.07;;;15.30;99.90;;;;;;5047761;28;20194;-78
2022/10/28 04:07:07;;;;;;;16.20;7.60;;;15.30;99.90;;;;;;5057765;28;20678;-79
2022/10/28 04:09:33;;;;;;;16.07;7.53;;;15.30;99.90;;;;;;5066626;28;20513;-78
2022/10/28 04:11:59;;;;;;;15.67;7.03;;;15.30;99.90;;;;;;5049204;28;20767;-78
2022/10/28 04:14:25;;;;;;;17.07;7.53;;;15.30;99.90;;;;;;5064277;28;20194;-78
2022/10/28 04:16:52;;;;;;;13.70;7.07;;;15.30;99.90;;;;;;5046683;28;20211;-79
2022/10/28 04:19:20;;;;;;;15.17;7.00;;;15.40;99.90;;;;;;5045885;28;20187;-78
2022/10/28 04:21:47;;;;;;;19.13;7.50;;;15.40;99.90;;;;;;5058563;28;20555;-78
2022/10/28 04:24:13;;;;;;;15.10;7.27;;;15.40;99.90;;;;;;5052875;28;20190;-77
2022/10/28 04:26:40;;;;;;;18.00;7.30;;;15.40;99.90;;;;;;5033039;28;20212;-78
2022/10/28 04:29:07;;;;;;;16.37;7.87;;;15.40;99.90;;;;;;5057019;28;20187;-78
2022/10/28 04:31:33;;;;;;;18.60;7.60;;;15.40;99.90;;;;;;5052138;28;20670;-79
2022/10/28 04:34:00;;;;;;;17.73;7.07;;;15.40;99.90;;;;;;5075754;28;20238;-78
2022/10/28 04:36:26;;;;;;;18.00;8.40;;;15.40;99.90;;;;;;5046460;28;20184;-79
2022/10/28 04:38:53;;;;;;;13.93;7.63;;;15.40;99.90;;;;;;5065997;28;20202;-78
2022/10/28 04:41:19;;;;;;;13.90;7.07;;;15.40;99.90;;;;;;5032849;28;20215;-78
2022/10/28 04:43:45;;;;;;;14.47;6.93;;;15.50;99.90;;;;;;5043364;28;20207;-78
2022/10/28 04:46:12;;;;;;;15.67;7.50;;;15.50;99.90;;;;;;5034255;28;20215;-78
2022/10/28 04:48:38;;;;;;;16.23;7.00;;;15.50;99.90;;;;;;5047676;28;20311;-78
2022/10/28 04:51:05;;;;;;;28.80;6.70;;;15.50;99.90;;;;;;5051674;28;20699;-78
2022/10/28 04:53:31;;;;;;;13.07;7.00;;;15.50;99.90;;;;;;5048700;28;20636;-78
2022/10/28 04:55:59;;;;;;;13.73;7.07;;;15.50;99.90;;;;;;5066583;28;21196;-78
2022/10/28 04:58:28;;;;;;;16.17;7.03;;;15.50;99.90;;;;;;5074938;28;20317;-78
2022/10/28 05:00:55;;;;;;;18.00;7.10;;;15.60;99.90;;;;;;5054645;28;20558;-78
2022/10/28 05:03:21;;;;;;;11.50;6.77;;;15.60;99.90;;;;;;5052270;28;20714;-78
2022/10/28 05:05:48;;;;;;;17.37;7.03;;;15.60;99.90;;;;;;5070911;28;20210;-78
2022/10/28 05:08:14;;;;;;;14.10;6.77;;;15.70;99.90;;;;;;5058092;28;20194;-78
2022/10/28 05:10:41;;;;;;;13.23;6.30;;;15.70;99.90;;;;;;5053914;28;20205;-78
2022/10/28 05:13:07;;;;;;;16.47;6.83;;;15.70;99.90;;;;;;5035459;28;20652;-78
2022/10/28 05:15:33;;;;;;;12.97;6.93;;;15.70;99.90;;;;;;5052219;28;20197;-78
2022/10/28 05:18:00;;;;;;;18.37;7.07;;;15.80;99.90;;;;;;5041819;28;20313;-78
2022/10/28 05:20:30;;;;;;;13.57;6.63;;;15.80;99.90;;;;;;5078981;28;20655;-78
2022/10/28 05:22:56;;;;;;;14.60;6.47;;;15.90;99.90;;;;;;5055562;28;20225;-79
2022/10/28 05:25:23;;;;;;;17.37;6.67;;;16.00;99.90;;;;;;5037575;28;20176;-78
2022/10/28 05:27:49;;;;;;;12.17;5.70;;;16.00;99.90;;;;;;5051258;28;20203;-78
2022/10/28 05:30:17;;;;;;;14.47;7.27;;;16.10;99.90;;;;;;5056159;28;20263;-78
2022/10/28 05:32:44;;;;;;;18.33;6.90;;;16.20;99.90;;;;;;5073959;28;20562;-78
2022/10/28 05:35:12;;;;;;;10.93;6.40;;;16.30;99.90;;;;;;5088259;28;20228;-78
2022/10/28 05:37:38;;;;;;;17.33;6.73;;;16.40;99.90;;;;;;5072734;28;20620;-79
2022/10/28 05:40:09;;;;;;;11.37;6.60;;;16.50;99.90;;;;;;5039498;28;20197;-78
2022/10/28 05:42:41;;;;;;;14.57;5.97;;;16.60;99.90;;;;;;5068851;28;20193;-79
2022/10/28 05:45:09;;;;;;;14.13;6.93;;;16.70;99.90;;;;;;5045680;28;20205;-79
2022/10/28 05:47:36;;;;;;;13.10;6.93;;;16.70;99.90;;;;;;5057168;28;20203;-79
2022/10/28 05:50:02;;;;;;;12.37;6.30;;;16.80;99.90;;;;;;5071931;28;20195;-79
2022/10/28 05:52:29;;;;;;;10.80;6.37;;;16.80;99.90;;;;;;5049281;28;21690;-79
2022/10/28 05:54:55;;;;;;;14.00;6.23;;;16.80;99.90;;;;;;5057095;28;20186;-78
2022/10/28 05:57:21;;;;;;;15.73;6.63;;;16.90;99.90;;;;;;5050935;28;20296;-78
2022/10/28 05:59:47;;;;;;;10.70;5.37;;;16.90;99.90;;;;;;5041011;28;20663;-78
2022/10/28 06:05:56;;;;;;;10.20;5.43;;;17.00;99.90;;;;;;5068432;28;20228;-78
2022/10/28 06:08:22;;;;;;;11.57;6.10;;;17.10;99.90;;;;;;5055929;28;20729;-78
2022/10/28 06:10:55;;;;;;;7.90;5.20;;;17.20;99.90;;;;;;5062431;28;20243;-78
2022/10/28 06:13:23;;;;;;;11.53;5.80;;;17.20;99.90;;;;;;5065103;28;20191;-78
2022/10/28 06:15:53;;;;;;;11.73;5.63;;;17.30;99.90;;;;;;5048968;28;20717;-78
2022/10/28 06:18:24;;;;;;;9.97;5.07;;;17.40;99.90;;;;;;5035519;28;20592;-78
2022/10/28 06:20:58;;;;;;;13.17;5.17;;;17.40;99.90;;;;;;5069598;28;20187;-78
2022/10/28 06:23:31;;;;;;;13.43;5.60;;;17.40;99.90;;;;;;5077048;28;20243;-78
2022/10/28 06:26:00;;;;;;;11.10;5.10;;;17.40;99.90;;;;;;5044419;28;20191;-78
2022/10/28 06:28:28;;;;;;;12.60;5.57;;;17.50;99.90;;;;;;5035922;28;20272;-78
2022/10/28 06:31:02;;;;;;;7.30;4.80;;;17.50;99.90;;;;;;5037560;28;20190;-78
2022/10/28 06:33:29;;;;;;;13.40;5.67;;;17.60;99.90;;;;;;5075898;28;20224;-78
2022/10/28 06:36:00;;;;;;;13.77;5.33;;;17.70;99.90;;;;;;5057470;28;20210;-78
2022/10/28 06:38:30;;;;;;;18.23;4.90;;;17.70;99.90;;;;;;5048680;28;20690;-78
2022/10/28 06:41:00;;;;;;;11.17;5.00;;;17.80;99.90;;;;;;5030206;28;20267;-78
2022/10/28 06:43:27;;;;;;;10.90;4.87;;;17.80;99.90;;;;;;5048993;28;20194;-78
2022/10/28 06:45:55;;;;;;;15.00;5.10;;;17.90;99.90;;;;;;5077809;28;20182;-78
2022/10/28 06:48:23;;;;;;;9.93;4.83;;;18.00;99.90;;;;;;5040864;28;20195;-78
2022/10/28 06:50:50;;;;;;;15.60;5.83;;;18.10;99.90;;;;;;5072286;28;20187;-78
2022/10/28 06:53:16;;;;;;;16.13;5.77;;;18.10;99.90;;;;;;5053250;28;20643;-78
2022/10/28 06:55:47;;;;;;;11.77;5.20;;;18.10;99.90;;;;;;5060832;28;20218;-78
2022/10/28 06:58:17;;;;;;;16.17;5.70;;;18.20;99.90;;;;;;5052427;28;20217;-79
2022/10/28 07:00:43;;;;;;;13.57;5.10;;;18.20;99.90;;;;;;5028658;28;20217;-77
2022/10/28 07:03:10;;;;;;;10.33;4.77;;;18.30;99.90;;;;;;5046057;28;20227;-78
2022/10/28 07:05:37;;;;;;;12.13;5.53;;;18.40;99.90;;;;;;5034365;28;20270;-78
2022/10/28 07:08:04;;;;;;;37.83;7.10;;;18.40;99.90;;;;;;5047464;28;20190;-78
2022/10/28 07:10:30;;;;;;;16.90;5.70;;;18.50;99.90;;;;;;5033352;28;20287;-78
2022/10/28 07:12:57;;;;;;;17.73;5.73;;;18.60;99.90;;;;;;5045941;28;20191;-78
2022/10/28 07:15:24;;;;;;;18.00;5.47;;;18.70;99.90;;;;;;5050956;28;20186;-79
2022/10/28 07:17:58;;;;;;;13.43;5.37;;;18.80;99.90;;;;;;5048948;28;20263;-78
2022/10/28 07:20:28;;;;;;;12.40;5.33;;;18.90;99.90;;;;;;5064166;28;20243;-78
2022/10/28 07:23:01;;;;;;;15.27;5.10;;;18.90;99.90;;;;;;5031435;28;20278;-78
2022/10/28 07:25:30;;;;;;;11.67;5.43;;;18.90;99.90;;;;;;5037409;28;20217;-78
2022/10/28 07:27:59;;;;;;;18.47;5.90;;;18.90;99.90;;;;;;5072458;28;20194;-78
2022/10/28 07:30:26;;;;;;;16.00;5.47;;;18.90;99.90;;;;;;5049550;28;20822;-78
2022/10/28 07:32:57;;;;;;;14.03;5.60;;;19.00;99.90;;;;;;5065447;28;20209;-78
2022/10/28 07:35:23;;;;;;;13.77;5.30;;;19.00;99.90;;;;;;5047658;28;20193;-78
2022/10/28 07:37:50;;;;;;;12.33;5.37;;;19.10;99.90;;;;;;5052198;28;20223;-78
2022/10/28 07:40:16;;;;;;;13.93;5.40;;;19.50;99.90;;;;;;5039816;28;20522;-77
2022/10/28 07:42:43;;;;;;;12.10;5.87;;;20.00;99.90;;;;;;5044906;28;20222;-78
2022/10/28 07:45:09;;;;;;;11.57;4.90;;;19.80;99.90;;;;;;5047214;28;20260;-77
2022/10/28 07:47:35;;;;;;;14.73;5.70;;;19.70;99.90;;;;;;5035958;28;20205;-77
2022/10/28 07:50:03;;;;;;;14.23;5.10;;;19.60;99.90;;;;;;5036265;28;20286;-77
2022/10/28 07:52:30;;;;;;;8.53;4.90;;;19.50;99.90;;;;;;5046518;28;20252;-77
2022/10/28 07:54:56;;;;;;;13.43;5.23;;;19.50;99.90;;;;;;5059037;28;21637;-78
2022/10/28 07:57:23;;;;;;;16.13;6.10;;;19.60;99.90;;;;;;5042589;28;20214;-78
2022/10/28 07:59:49;;;;;;;17.63;6.00;;;19.60;99.90;;;;;;5050005;28;20189;-78
2022/10/28 08:02:22;;;;;;;17.13;4.97;;;19.60;99.90;;;;;;5031614;28;20190;-78
2022/10/28 08:04:50;;;;;;;15.53;5.73;;;19.70;99.90;;;;;;5056041;28;20574;-78
2022/10/28 08:07:19;;;;;;;12.77;5.20;;;19.70;99.90;;;;;;5034527;28;20196;-77
2022/10/28 08:09:45;;;;;;;18.70;5.93;;;19.80;99.90;;;;;;5077873;28;20174;-78
2022/10/28 08:12:15;;;;;;;15.87;5.73;;;19.80;99.90;;;;;;5044315;28;20293;-78
2022/10/28 08:14:41;;;;;;;13.23;5.30;;;19.80;99.90;;;;;;5038429;28;20305;-77
2022/10/28 08:17:07;;;;;;;11.30;5.00;;;20.10;99.90;;;;;;5045130;28;20218;-78
2022/10/28 08:19:34;;;;;;;12.30;5.27;;;20.10;99.90;;;;;;5033002;28;20197;-78
2022/10/28 08:22:01;;;;;;;13.77;4.87;;;20.00;99.90;;;;;;5066324;28;20194;-78
2022/10/28 08:24:27;;;;;;;11.93;4.87;;;20.00;99.90;;;;;;5058514;28;20195;-77
2022/10/28 08:26:53;;;;;;;12.13;5.10;;;20.20;99.90;;;;;;5052937;28;20670;-78
2022/10/28 08:29:20;;;;;;;13.27;5.10;;;20.30;99.90;;;;;;5055423;28;20732;-77
2022/10/28 08:31:46;;;;;;;19.47;5.07;;;20.30;99.90;;;;;;5034169;28;20194;-77
2022/10/28 08:34:13;;;;;;;12.03;5.13;;;20.50;99.90;;;;;;5048065;28;20282;-77
2022/10/28 08:36:40;;;;;;;17.47;5.43;;;20.50;99.90;;;;;;5036796;28;20240;-78
2022/10/28 08:39:06;;;;;;;10.70;5.47;;;20.60;99.90;;;;;;5033700;28;20224;-78
2022/10/28 08:41:36;;;;;;;10.50;5.60;;;20.60;99.90;;;;;;5068729;28;20190;-77
2022/10/28 08:44:30;;;;;;;14.87;5.50;;;20.70;99.90;;;;;;5068780;28;20210;-77
2022/10/28 08:47:08;;;;;;;13.73;5.00;;;20.80;99.90;;;;;;5060041;28;20671;-78
2022/10/28 08:49:40;;;;;;;12.90;4.13;;;20.80;99.90;;;;;;5053711;28;20186;-77
2022/10/28 08:52:38;;;;;;;12.57;4.20;;;20.90;99.90;;;;;;5046869;28;20664;-77
2022/10/28 08:55:14;;;;;;;10.35;4.60;;;20.90;99.90;;;;;;5058192;28;20179;-78
2022/10/28 08:58:19;;;;;;;14.48;4.47;;;21.00;99.90;;;;;;5035419;28;20214;-78
2022/10/28 09:00:53;;;;;;;17.30;5.10;;;21.00;99.90;;;;;;5056247;28;20218;-78
2022/10/28 09:03:37;;;;;;;10.00;4.77;;;21.00;99.90;;;;;;5057401;28;20295;-78
2022/10/28 09:06:07;;;;;;;15.60;4.85;;;21.20;99.90;;;;;;5055943;28;20654;-78
2022/10/28 09:08:47;;;;;;;12.80;4.57;;;21.20;99.90;;;;;;5081251;28;20255;-78
2022/10/28 09:12:00;;;;;;;11.50;4.80;;;21.30;99.90;;;;;;5050639;28;20745;-78
2022/10/28 09:15:11;;;;;;;13.80;4.88;;;21.40;99.90;;;;;;5027287;28;20734;-78
2022/10/28 09:17:50;;;;;;;13.18;4.88;;;21.30;99.90;;;;;;5067238;28;20223;-78
2022/10/28 09:20:45;;;;;;;16.08;4.72;;;21.50;99.90;;;;;;5054895;28;20240;-78
2022/10/28 09:23:26;;;;;;;11.68;4.35;;;21.60;99.90;;;;;;5030379;28;20987;-78
2022/10/28 09:26:27;;;;;;;14.05;4.05;;;21.70;99.90;;;;;;5045048;28;20191;-78
2022/10/28 09:29:39;;;;;;;13.07;4.22;;;21.80;99.90;;;;;;5038375;28;20347;-78
2022/10/28 09:32:49;;;;;;;14.20;3.40;;;21.80;99.90;;;;;;5037481;28;20197;-78
2022/10/28 09:35:23;;;;;;;12.20;4.47;;;21.80;99.90;;;;;;5043756;28;20198;-78
2022/10/28 09:38:10;;;;;;;8.15;3.88;;;21.90;99.90;;;;;;5057156;28;20702;-78
2022/10/28 09:40:45;;;;;;;10.27;3.83;;;22.00;99.90;;;;;;5060445;28;20900;-78
2022/10/28 09:43:30;;;;;;;8.32;3.60;;;22.00;99.90;;;;;;5041640;28;20277;-78
2022/10/28 09:46:06;;;;;;;14.45;4.45;;;22.00;99.90;;;;;;5074632;28;20194;-78
2022/10/28 09:48:40;;;;;;;15.02;4.15;;;22.10;99.90;;;;;;5075078;28;20562;-78
2022/10/28 09:51:22;;;;;;;9.40;3.65;;;22.20;99.90;;;;;;5062029;28;20688;-78
2022/10/28 09:53:56;;;;;;;10.20;3.45;;;22.30;99.90;;;;;;5070836;28;20186;-78
2022/10/28 09:56:24;;;;;;;9.75;3.63;;;22.40;99.90;;;;;;5049966;28;20232;-78
2022/10/28 09:58:54;;;;;;;12.73;4.10;;;22.50;99.90;;;;;;5061225;28;20191;-78
2022/10/28 10:01:21;;;;;;;10.50;4.10;;;22.60;99.90;;;;;;5063501;28;20558;-78
2022/10/28 10:03:50;;;;;;;9.45;3.70;;;22.70;99.90;;;;;;5039464;28;20282;-78
2022/10/28 10:06:38;;;;;;;13.25;3.40;;;22.90;99.90;;;;;;5050328;28;20191;-78
2022/10/28 10:09:05;;;;;;;9.88;4.15;;;23.10;99.90;;;;;;5073195;28;20183;-78
2022/10/28 10:11:53;;;;;;;16.45;4.05;;;23.30;99.90;;;;;;5044513;28;20202;-78
2022/10/28 10:14:40;;;;;;;10.65;3.75;;;23.30;99.90;;;;;;5059955;28;20284;-78
2022/10/28 10:17:19;;;;;;;14.43;3.78;;;23.60;99.90;;;;;;5044231;28;20218;-78
2022/10/28 10:20:08;;;;;;;9.60;3.67;;;23.90;99.90;;;;;;5051506;28;20182;-78
2022/10/28 10:22:43;;;;;;;17.48;4.03;;;25.60;99.90;;;;;;5068148;28;20527;-78
2022/10/28 10:25:18;;;;;;;15.40;4.00;;;27.80;99.90;;;;;;5050880;28;20277;-78
2022/10/28 10:28:15;;;;;;;13.52;3.72;;;29.70;99.90;;;;;;5042685;28;20201;-78
2022/10/28 10:31:20;;;;;;;14.07;4.20;;;30.50;99.90;;;;;;5062743;28;20454;-78
2022/10/28 10:33:54;;;;;;;10.38;3.80;;;28.70;99.90;;;;;;5061611;28;20428;-78
2022/10/28 10:36:27;;;;;;;15.30;4.20;;;27.40;99.90;;;;;;5058214;28;20811;-78
2022/10/28 10:39:00;;;;;;;8.82;3.70;;;26.40;99.90;;;;;;5044219;28;20198;-78
2022/10/28 10:41:44;;;;;;;15.90;3.85;;;26.00;99.90;;;;;;5044473;28;20214;-78
2022/10/28 10:44:23;;;;;;;15.98;4.13;;;25.80;99.90;;;;;;5056296;28;20179;-77
2022/10/28 10:47:10;;;;;;;12.52;3.90;;;25.50;99.90;;;;;;5045552;28;20193;-78
2022/10/28 10:49:37;;;;;;;10.05;3.75;;;25.90;99.90;;;;;;5063909;28;20205;-78
2022/10/28 10:52:18;;;;;;;12.05;3.83;;;25.80;99.90;;;;;;5027157;28;20199;-78
2022/10/28 10:55:21;;;;;;;20.73;4.45;;;25.90;99.90;;;;;;5030832;28;20186;-78
2022/10/28 10:57:48;;;;;;;12.20;3.92;;;27.30;99.90;;;;;;5045636;28;20699;-78
2022/10/28 11:06:06;;;;;;;10.73;3.65;;;24.80;99.90;;;;;;5169496;22;20225;-79
2022/10/28 11:08:41;;;;;;;10.82;4.15;;;24.60;99.90;;;;;;5063623;28;20727;-79
2022/10/28 11:11:20;;;;;;;8.63;3.85;;;24.50;99.90;;;;;;5057127;28;20297;-79
2022/10/28 11:14:00;;;;;;;11.43;3.90;;;24.40;99.90;;;;;;5053171;28;20857;-79
2022/10/28 11:16:27;;;;;;;18.63;4.30;;;24.40;99.90;;;;;;5045409;28;20205;-79
2022/10/28 11:18:53;;;;;;;14.25;4.20;;;24.50;99.90;;;;;;5048576;28;20668;-79
2022/10/28 11:21:48;;;;;;;9.40;3.70;;;24.50;99.90;;;;;;5082954;28;20178;-79
2022/10/28 11:24:51;;;;;;;8.95;3.92;;;24.50;99.90;;;;;;5057813;28;20368;-79
2022/10/28 11:28:04;;;;;;;9.88;3.63;;;24.40;99.90;;;;;;5042337;28;20213;-79
2022/10/28 11:31:07;;;;;;;8.80;3.90;;;24.40;99.90;;;;;;5082079;28;20688;-79
2022/10/28 11:34:26;;;;;;;13.93;4.18;;;24.40;99.90;;;;;;5063825;28;20185;-79
2022/10/28 11:37:36;;;;;;;13.45;4.05;;;24.40;99.90;;;;;;5051608;28;20574;-79
2022/10/28 11:40:57;;;;;;;10.85;3.55;;;24.40;99.90;;;;;;5051245;28;20909;-79
2022/10/28 11:43:47;;;;;;;8.95;3.88;;;24.30;99.90;;;;;;5064963;28;20558;-79
2022/10/28 11:47:08;;;;;;;12.98;3.80;;;24.30;99.90;;;;;;5026289;28;20250;-79
2022/10/28 11:50:18;;;;;;;16.08;4.20;;;24.30;99.90;;;;;;5075209;28;20182;-79
2022/10/28 11:53:15;;;;;;;9.63;3.97;;;24.30;99.90;;;;;;5063638;28;20558;-79
2022/10/28 11:55:54;;;;;;;16.52;3.70;;;24.30;99.90;;;;;;5048265;28;20198;-79
2022/10/28 11:58:46;;;;;;;15.80;4.25;;;24.30;99.90;;;;;;5063615;28;20212;-80
2022/10/28 12:01:38;;;;;;;9.10;3.90;;;24.30;99.90;;;;;;5049130;28;20241;-79
2022/10/28 12:04:18;;;;;;;13.35;4.03;;;24.20;99.90;;;;;;5062462;28;20242;-79
2022/10/28 12:07:02;;;;;;;11.35;4.10;;;24.10;99.90;;;;;;5034744;28;20197;-79
2022/10/28 12:10:33;;;;;;;16.30;3.95;;;24.10;99.90;;;;;;5058465;28;20201;-78
2022/10/28 12:13:19;;;;;;;14.02;3.88;;;24.10;99.90;;;;;;5062152;28;20324;-79
2022/10/28 12:16:14;;;;;;;12.95;3.72;;;24.10;99.90;;;;;;5047461;28;20239;-78
2022/10/28 12:18:56;;;;;;;9.10;4.22;;;24.10;99.90;;;;;;5065423;28;20262;-79
2022/10/28 12:22:09;;;;;;;11.73;3.88;;;24.10;99.90;;;;;;5063250;28;20705;-78
2022/10/28 12:24:41;;;;;;;11.75;3.85;;;24.00;99.90;;;;;;5006456;28;20191;-79
2022/10/28 12:27:31;;;;;;;7.47;3.38;;;24.00;99.90;;;;;;5051984;28;20226;-79
2022/10/28 12:30:14;;;;;;;16.90;3.67;;;24.00;99.90;;;;;;5067637;28;20189;-79
2022/10/28 12:32:46;;;;;;;11.35;4.10;;;23.90;99.90;;;;;;5088754;28;20262;-78
2022/10/28 12:35:35;;;;;;;12.50;3.72;;;23.90;99.90;;;;;;5074100;28;20289;-79
2022/10/28 12:38:32;;;;;;;15.18;3.85;;;23.90;99.90;;;;;;5075579;28;20210;-79
2022/10/28 12:41:24;;;;;;;11.85;3.83;;;23.90;99.90;;;;;;5075782;28;20614;-79
2022/10/28 12:44:08;;;;;;;9.30;3.58;;;23.90;99.90;;;;;;5089751;28;20194;-79
2022/10/28 12:47:06;;;;;;;12.05;3.92;;;23.80;99.90;;;;;;5081016;28;20174;-78
2022/10/28 12:49:54;;;;;;;18.08;4.15;;;23.70;99.90;;;;;;5072030;28;20178;-79
2022/10/28 12:52:29;;;;;;;12.13;3.97;;;23.70;99.90;;;;;;5073866;28;20190;-79
2022/10/28 12:55:14;;;;;;;21.23;4.72;;;23.70;99.90;;;;;;5055110;28;20182;-79
2022/10/28 12:57:59;;;;;;;9.77;4.00;;;23.60;99.90;;;;;;5055362;28;20258;-79
2022/10/28 13:00:56;;;;;;;15.90;4.07;;;23.60;99.90;;;;;;5054850;28;20179;-79
2022/10/28 13:03:23;;;;;;;9.77;4.00;;;23.50;99.90;;;;;;5055588;28;20179;-79
2022/10/28 13:06:26;;;;;;;11.95;3.83;;;23.40;99.90;;;;;;5046968;28;20730;-79
2022/10/28 13:09:15;;;;;;;12.27;4.03;;;23.30;99.90;;;;;;5092039;28;20264;-79
2022/10/28 13:12:12;;;;;;;11.75;4.20;;;23.30;99.90;;;;;;5071338;28;20212;-79
2022/10/28 13:15:18;;;;;;;14.45;4.05;;;23.30;99.90;;;;;;5054553;28;20523;-78
2022/10/28 13:18:34;;;;;;;8.35;4.57;;;23.20;99.90;;;;;;5056836;28;20697;-79
2022/10/28 13:21:55;;;;;;;10.50;3.90;;;23.20;99.90;;;;;;5022055;28;20217;-79
2022/10/28 13:24:36;;;;;;;12.40;4.20;;;23.20;99.90;;;;;;5071252;28;20178;-79
2022/10/28 13:27:08;;;;;;;16.25;4.80;;;23.10;99.90;;;;;;5047617;28;20249;-79
2022/10/28 13:29:39;;;;;;;10.07;4.20;;;23.10;99.90;;;;;;5071123;28;20190;-78
2022/10/28 13:32:30;;;;;;;10.38;4.25;;;23.00;99.90;;;;;;5053969;28;20186;-79
2022/10/28 13:34:58;;;;;;;15.50;4.65;;;23.00;99.90;;;;;;5068369;28;20244;-78
2022/10/28 13:37:34;;;;;;;9.18;4.38;;;23.00;99.90;;;;;;5054679;28;20294;-78